Terminal Aerodrome Forecast
Issued by NWS Spokane, WA

Home | Current Version | Previous Version | Text Only | Print | Product List | Glossary On
Versions: 1 2 3 4 5 6 7 8 9 10 11 12 13 14 15 16 17 18 19 20 21 22 23 24 25 26 27 28 29 30 31 32 33 34 35 36 37 38 39 40 41 42 43 44 45 46 47 48 49 50
000
FTUS46 KOTX 180539
TAFGEG
TAF
KGEG 180539Z 1806/1906 23010KT P6SM VCSH SCT020 BKN050
     FM181000 22010KT 2SM -SN SCT005 OVC020
     FM181300 22010KT 1SM -SN BR OVC003
     FM181800 31013KT 1/2SM SN FG OVC007
     FM182100 01015G20KT 2SM -SN BR BKN015
     FM190100 02013KT 5SM BR VCSH SCT015 BKN050=

USA.gov is the U.S. government's official web portal to all federal, state and local government web resources and services.